createdAt,value
2019-03-03T00:05:57.791Z,17.70
2019-03-03T00:08:27.490Z,17.50
2019-03-03T00:10:57.147Z,17.50
2019-03-03T00:13:26.811Z,18.30
2019-03-03T00:15:56.658Z,17.90
2019-03-03T00:18:26.305Z,18.33
2019-03-03T00:20:55.915Z,19.80
2019-03-03T00:23:25.585Z,19.07
2019-03-03T00:25:55.228Z,17.90
2019-03-03T00:28:24.888Z,18.60
2019-03-03T00:30:54.516Z,17.63
2019-03-03T00:33:24.139Z,18.03
2019-03-03T00:35:53.814Z,18.37
2019-03-03T00:38:51.279Z,18.00
2019-03-03T00:41:35.964Z,17.83
2019-03-03T00:44:18.228Z,18.27
2019-03-03T00:47:24.879Z,17.93
2019-03-03T00:50:16.249Z,19.07
2019-03-03T00:52:59.808Z,17.73
2019-03-03T00:55:38.976Z,17.47
2019-03-03T00:58:14.680Z,20.03
2019-03-03T01:00:50.923Z,19.20
2019-03-03T01:03:26.535Z,18.97
2019-03-03T01:06:18.329Z,21.33
2019-03-03T01:09:07.292Z,20.70
2019-03-03T01:12:08.261Z,20.67
2019-03-03T01:14:53.921Z,20.43
2019-03-03T01:17:39.166Z,19.63
2019-03-03T01:20:26.411Z,19.70
2019-03-03T01:23:15.627Z,19.60
2019-03-03T01:25:45.254Z,19.47
2019-03-03T01:28:14.935Z,19.83
2019-03-03T01:30:44.538Z,20.40
2019-03-03T01:33:14.185Z,21.00
2019-03-03T01:35:43.815Z,21.83
2019-03-03T01:38:13.530Z,20.70
2019-03-03T01:40:43.164Z,20.10
2019-03-03T01:43:12.821Z,24.27
2019-03-03T01:45:42.476Z,22.63
2019-03-03T01:48:12.084Z,23.57
2019-03-03T01:50:41.765Z,22.23
2019-03-03T01:53:11.419Z,21.30
2019-03-03T01:55:41.087Z,20.97
2019-03-03T01:58:10.720Z,22.27
2019-03-03T02:00:40.381Z,22.63
2019-03-03T02:03:10.042Z,22.53
2019-03-03T02:05:39.871Z,22.63
2019-03-03T02:08:09.478Z,21.87
2019-03-03T02:10:39.223Z,23.23
2019-03-03T02:13:08.887Z,22.43
2019-03-03T02:15:38.762Z,22.30
2019-03-03T02:18:08.463Z,23.27
2019-03-03T02:20:38.155Z,24.30
2019-03-03T02:23:07.771Z,23.27
2019-03-03T02:25:37.408Z,24.97
2019-03-03T02:28:07.181Z,23.57
2019-03-03T02:30:36.852Z,24.20
2019-03-03T02:33:06.509Z,25.40
2019-03-03T02:35:36.114Z,22.20
2019-03-03T02:38:05.798Z,24.57
2019-03-03T02:40:35.393Z,24.73
2019-03-03T02:43:05.004Z,24.90
2019-03-03T02:45:34.671Z,24.77
2019-03-03T02:48:04.296Z,24.77
2019-03-03T02:50:33.906Z,25.17
2019-03-03T02:53:03.566Z,24.90
2019-03-03T02:55:33.224Z,24.00
2019-03-03T02:58:02.880Z,26.13
2019-03-03T03:00:32.542Z,24.07
2019-03-03T03:03:02.826Z,24.23
2019-03-03T03:05:51.386Z,23.97
2019-03-03T03:08:28.183Z,24.40
2019-03-03T03:11:21.156Z,26.30
2019-03-03T03:14:00.131Z,24.37
2019-03-03T03:16:35.743Z,24.97
2019-03-03T03:19:18.085Z,23.60
2019-03-03T03:21:59.220Z,24.93
2019-03-03T03:24:47.743Z,23.53
2019-03-03T03:27:48.684Z,22.63
2019-03-03T03:30:49.379Z,22.93
2019-03-03T03:33:47.069Z,23.17
2019-03-03T03:36:25.789Z,23.63
2019-03-03T03:39:13.054Z,23.63
2019-03-03T03:42:00.339Z,23.07
2019-03-03T03:44:47.088Z,22.97
2019-03-03T03:47:51.054Z,22.27
2019-03-03T03:50:39.686Z,21.97
2019-03-03T03:53:19.561Z,22.10
2019-03-03T03:56:07.085Z,21.83
2019-03-03T03:58:54.427Z,23.63
2019-03-03T04:01:44.117Z,22.47
2019-03-03T04:04:35.434Z,22.67
2019-03-03T04:07:30.480Z,22.53
2019-03-03T04:10:16.000Z,24.63
2019-03-03T04:13:03.210Z,21.70
2019-03-03T04:15:51.765Z,23.67
2019-03-03T04:18:52.561Z,22.00
2019-03-03T04:21:50.263Z,20.87
2019-03-03T04:24:29.948Z,19.80
2019-03-03T04:27:24.639Z,20.17
2019-03-03T04:30:13.243Z,20.37
2019-03-03T04:32:53.451Z,20.60
2019-03-03T04:35:47.877Z,20.17
2019-03-03T04:38:45.658Z,19.47
2019-03-03T04:41:32.990Z,20.67
2019-03-03T04:44:30.883Z,18.73
2019-03-03T04:47:26.235Z,19.60
2019-03-03T04:50:14.771Z,17.77
2019-03-03T04:53:06.331Z,18.60
2019-03-03T04:56:01.838Z,19.07
2019-03-03T04:58:49.279Z,16.47
2019-03-03T05:01:46.864Z,15.13
2019-03-03T05:04:33.690Z,15.90
2019-03-03T05:07:16.971Z,15.90
2019-03-03T05:09:52.564Z,14.53
2019-03-03T05:12:58.386Z,14.83
2019-03-03T05:15:44.397Z,14.40
2019-03-03T05:18:30.554Z,14.50
2019-03-03T05:21:00.205Z,15.60
2019-03-03T05:23:29.859Z,13.07
2019-03-03T05:25:59.444Z,14.40
2019-03-03T05:28:29.095Z,12.77
2019-03-03T05:30:58.746Z,13.27
2019-03-03T05:33:28.402Z,13.03
2019-03-03T05:35:58.022Z,13.37
2019-03-03T05:38:27.672Z,13.17
2019-03-03T05:40:57.337Z,11.87
2019-03-03T05:43:27.867Z,11.77
2019-03-03T05:45:57.533Z,10.40
2019-03-03T05:48:27.127Z,11.53
2019-03-03T05:50:56.788Z,11.20
2019-03-03T05:53:26.366Z,11.77
2019-03-03T05:55:56.041Z,11.23
2019-03-03T05:58:25.714Z,10.53
2019-03-03T06:00:55.369Z,11.37
2019-03-03T06:03:24.972Z,10.27
2019-03-03T06:05:54.626Z,9.50
2019-03-03T06:08:24.276Z,9.47
2019-03-03T06:10:53.882Z,9.50
2019-03-03T06:13:23.557Z,8.93
2019-03-03T06:15:53.319Z,8.27
2019-03-03T06:18:23.058Z,9.73
2019-03-03T06:20:52.668Z,8.23
2019-03-03T06:23:22.268Z,8.13
2019-03-03T06:25:51.931Z,8.17
2019-03-03T06:28:21.535Z,8.13
2019-03-03T06:30:51.183Z,8.03
2019-03-03T06:33:20.781Z,8.63
2019-03-03T06:35:50.433Z,7.97
2019-03-03T06:38:20.016Z,7.33
2019-03-03T06:40:49.670Z,7.80
2019-03-03T06:43:19.310Z,7.20
2019-03-03T06:45:48.910Z,6.53
2019-03-03T06:48:18.550Z,7.00
2019-03-03T06:50:48.322Z,6.97
2019-03-03T06:53:18.025Z,6.33
2019-03-03T06:55:47.664Z,6.27
2019-03-03T06:58:17.305Z,6.60
2019-03-03T07:00:46.938Z,6.63
2019-03-03T07:03:16.574Z,6.23
2019-03-03T07:05:46.167Z,5.93
2019-03-03T07:08:15.808Z,5.73
2019-03-03T07:10:45.387Z,5.03
2019-03-03T07:13:15.061Z,5.40
2019-03-03T07:15:44.640Z,5.27
2019-03-03T07:18:14.321Z,6.07
2019-03-03T07:20:43.916Z,5.73
2019-03-03T07:23:15.848Z,5.30
2019-03-03T07:25:45.469Z,5.17
2019-03-03T07:28:17.191Z,5.80
2019-03-03T07:30:46.351Z,5.80
2019-03-03T07:33:34.979Z,5.20
2019-03-03T07:36:04.571Z,5.70
2019-03-03T07:38:34.217Z,5.30
2019-03-03T07:41:03.794Z,7.77
2019-03-03T07:43:33.472Z,6.00
2019-03-03T07:46:03.110Z,6.63
2019-03-03T07:48:33.180Z,5.50
2019-03-03T07:51:07.122Z,6.20
2019-03-03T07:53:37.741Z,5.70
2019-03-03T07:56:07.408Z,5.73
2019-03-03T07:58:37.055Z,5.40
2019-03-03T08:01:06.764Z,5.47
2019-03-03T08:03:36.451Z,5.03
2019-03-03T08:06:06.027Z,4.67
2019-03-03T08:08:35.691Z,6.57
2019-03-03T08:11:05.300Z,5.40
2019-03-03T08:13:34.883Z,4.60
2019-03-03T08:16:04.544Z,4.70
2019-03-03T08:18:34.187Z,5.07
2019-03-03T08:21:03.891Z,5.40
2019-03-03T08:23:33.537Z,5.20
2019-03-03T08:26:03.155Z,5.27
2019-03-03T08:28:32.752Z,4.70
2019-03-03T08:31:03.100Z,5.50
2019-03-03T08:33:32.725Z,4.70
2019-03-03T08:36:02.385Z,5.07
2019-03-03T08:38:32.083Z,5.00
2019-03-03T08:41:01.761Z,4.47
2019-03-03T08:43:37.875Z,5.10
2019-03-03T08:46:16.926Z,5.30
2019-03-03T08:49:08.013Z,4.70
2019-03-03T08:51:51.297Z,4.40
2019-03-03T08:54:30.264Z,4.60
2019-03-03T08:57:17.875Z,4.50
2019-03-03T09:00:09.234Z,4.57
2019-03-03T09:02:57.835Z,4.67
2019-03-03T09:05:40.319Z,3.93
2019-03-03T09:08:28.942Z,4.60
2019-03-03T09:11:17.551Z,4.67
2019-03-03T09:13:56.602Z,4.83
2019-03-03T09:16:51.119Z,5.10
2019-03-03T09:19:35.141Z,4.27
2019-03-03T09:22:14.536Z,3.97
2019-03-03T09:25:09.155Z,4.77
2019-03-03T09:27:57.214Z,4.27
2019-03-03T09:30:49.147Z,3.93
2019-03-03T09:33:46.854Z,5.60
2019-03-03T09:36:35.419Z,4.13
2019-03-03T09:39:23.852Z,4.03
2019-03-03T09:42:15.438Z,4.23
2019-03-03T09:44:51.446Z,4.37
2019-03-03T09:47:52.373Z,4.40
2019-03-03T09:50:39.811Z,5.23
2019-03-03T09:53:34.260Z,4.20
2019-03-03T09:56:20.166Z,4.00
2019-03-03T09:59:09.220Z,4.70
2019-03-03T10:02:03.683Z,4.40
2019-03-03T10:04:44.920Z,4.10
2019-03-03T10:07:48.927Z,4.17
2019-03-03T10:10:26.580Z,4.40
2019-03-03T10:13:13.886Z,4.03
2019-03-03T10:16:02.428Z,4.20
2019-03-03T10:18:53.108Z,4.77
2019-03-03T10:21:33.865Z,3.80
2019-03-03T10:24:21.079Z,4.47
2019-03-03T10:27:15.622Z,4.30
2019-03-03T10:29:55.329Z,4.00
2019-03-03T10:32:59.200Z,4.73
2019-03-03T10:36:03.060Z,4.30
2019-03-03T10:38:51.617Z,5.63
2019-03-03T10:41:32.678Z,5.37
2019-03-03T10:44:11.896Z,4.07
2019-03-03T10:46:55.754Z,3.97
2019-03-03T10:49:40.556Z,4.03
2019-03-03T10:52:32.356Z,4.30
2019-03-03T10:55:16.139Z,4.83
2019-03-03T10:58:03.657Z,5.07
2019-03-03T11:00:54.094Z,4.03
2019-03-03T11:03:48.713Z,4.47
2019-03-03T11:06:39.843Z,3.53
2019-03-03T11:09:44.119Z,4.53
2019-03-03T11:12:31.342Z,5.13
2019-03-03T11:15:19.350Z,4.57
2019-03-03T11:18:07.948Z,4.90
2019-03-03T11:20:59.627Z,11.17
2019-03-03T11:23:35.247Z,12.50
2019-03-03T11:26:30.254Z,4.37
2019-03-03T11:29:22.177Z,7.67
2019-03-03T11:32:09.334Z,5.80
2019-03-03T11:34:54.775Z,5.63
2019-03-03T11:37:49.631Z,4.80
2019-03-03T11:40:37.104Z,4.70
2019-03-03T11:43:28.860Z,4.00
2019-03-03T11:46:20.339Z,4.70
2019-03-03T11:49:08.872Z,4.90
2019-03-03T11:51:56.486Z,4.00
2019-03-03T11:54:45.626Z,4.60
2019-03-03T11:57:52.635Z,4.90
2019-03-03T12:00:54.225Z,4.50
2019-03-03T12:03:42.815Z,4.60
2019-03-03T12:06:29.516Z,5.10
2019-03-03T12:09:33.462Z,5.80
2019-03-03T12:12:28.329Z,4.80
2019-03-03T12:15:11.783Z,4.67
2019-03-03T12:17:50.215Z,5.37
2019-03-03T12:20:37.783Z,5.47
2019-03-03T12:23:25.351Z,4.90
2019-03-03T12:26:10.301Z,5.60
2019-03-03T12:28:58.961Z,5.00
2019-03-03T12:31:46.175Z,5.47
2019-03-03T12:34:29.582Z,4.93
2019-03-03T12:37:14.936Z,4.77
2019-03-03T12:40:04.720Z,4.90
2019-03-03T12:42:47.872Z,4.27
2019-03-03T12:45:24.540Z,4.50
2019-03-03T12:48:13.110Z,4.53
2019-03-03T12:50:50.214Z,4.67
2019-03-03T12:53:37.775Z,3.70
2019-03-03T12:56:15.860Z,5.70
2019-03-03T12:58:54.588Z,4.00
2019-03-03T13:01:34.904Z,4.73
2019-03-03T13:04:20.824Z,4.60
2019-03-03T13:07:03.765Z,4.17
2019-03-03T13:09:55.637Z,4.13
2019-03-03T13:12:44.244Z,4.90
2019-03-03T13:15:31.689Z,3.90
2019-03-03T13:18:20.299Z,4.33
2019-03-03T13:20:56.966Z,5.03
2019-03-03T13:23:48.610Z,4.10
2019-03-03T13:26:43.039Z,3.80
2019-03-03T13:29:34.796Z,4.37
2019-03-03T13:32:32.370Z,3.43
2019-03-03T13:35:27.098Z,3.67
2019-03-03T13:38:11.890Z,4.00
2019-03-03T13:41:15.435Z,3.37
2019-03-03T13:43:45.704Z,3.97
2019-03-03T13:46:15.773Z,4.23
2019-03-03T13:48:45.426Z,4.07
2019-03-03T13:51:15.224Z,3.73
2019-03-03T13:53:46.480Z,3.50
2019-03-03T13:56:18.248Z,3.73
2019-03-03T13:58:47.997Z,4.07
2019-03-03T14:01:18.895Z,3.90
2019-03-03T14:03:48.661Z,3.77
2019-03-03T14:06:18.335Z,3.83
2019-03-03T14:08:47.993Z,4.20
2019-03-03T14:11:27.328Z,3.93
2019-03-03T14:13:56.924Z,3.70
2019-03-03T14:16:26.579Z,3.90
2019-03-03T14:18:56.287Z,4.33
2019-03-03T14:21:26.337Z,4.47
2019-03-03T14:23:56.016Z,4.20
2019-03-03T14:26:25.629Z,4.27
2019-03-03T14:28:55.418Z,4.37
2019-03-03T14:31:25.901Z,3.83
2019-03-03T14:33:55.715Z,4.10
2019-03-03T14:36:25.315Z,4.33
2019-03-03T14:38:55.267Z,3.97
2019-03-03T14:41:24.928Z,4.10
2019-03-03T14:43:54.512Z,3.90
2019-03-03T14:46:24.171Z,3.63
2019-03-03T14:48:58.047Z,4.27
2019-03-03T14:51:28.525Z,4.80
2019-03-03T14:53:58.426Z,4.63
2019-03-03T14:56:28.287Z,4.03
2019-03-03T14:58:58.012Z,5.00
2019-03-03T15:01:27.826Z,4.90
2019-03-03T15:03:57.487Z,4.80
2019-03-03T15:06:27.175Z,4.27
2019-03-03T15:08:56.862Z,4.33
2019-03-03T15:11:26.533Z,4.67
2019-03-03T15:13:56.163Z,4.43
2019-03-03T15:16:25.790Z,5.03
2019-03-03T15:18:55.498Z,5.40
2019-03-03T15:21:26.237Z,5.10
2019-03-03T15:23:58.110Z,5.10
2019-03-03T15:26:27.741Z,5.70
2019-03-03T15:28:57.404Z,5.67
2019-03-03T15:31:27.062Z,5.83
2019-03-03T15:33:57.091Z,6.13
2019-03-03T15:36:26.768Z,5.60
2019-03-03T15:38:57.271Z,5.77
2019-03-03T15:41:27.127Z,5.70
2019-03-03T15:43:56.820Z,5.40
2019-03-03T15:46:26.422Z,5.87
2019-03-03T15:48:56.052Z,6.10
2019-03-03T15:51:26.141Z,6.67
2019-03-03T15:53:55.747Z,6.10
2019-03-03T15:56:25.415Z,6.77
2019-03-03T15:58:55.831Z,6.13
2019-03-03T16:01:25.788Z,6.80
2019-03-03T16:03:55.485Z,6.70
2019-03-03T16:06:25.133Z,6.73
2019-03-03T16:08:54.803Z,7.80
2019-03-03T16:11:24.573Z,6.57
2019-03-03T16:13:54.246Z,6.83
2019-03-03T16:16:23.999Z,7.53
2019-03-03T16:18:53.700Z,7.43
2019-03-03T16:21:23.350Z,7.10
2019-03-03T16:23:53.032Z,6.93
2019-03-03T16:26:22.646Z,7.77
2019-03-03T16:28:52.711Z,7.53
2019-03-03T16:31:22.316Z,7.60
2019-03-03T16:33:53.727Z,7.10
2019-03-03T16:36:23.343Z,7.27
2019-03-03T16:38:53.026Z,6.87
2019-03-03T16:41:24.958Z,6.43
2019-03-03T16:43:54.631Z,7.13
2019-03-03T16:46:24.301Z,6.60
2019-03-03T16:48:53.972Z,7.00
2019-03-03T16:51:23.646Z,6.93
2019-03-03T16:53:53.718Z,7.20
2019-03-03T16:56:23.719Z,7.60
2019-03-03T16:58:54.981Z,6.30
2019-03-03T17:01:25.278Z,7.37
2019-03-03T17:03:55.042Z,6.73
2019-03-03T17:06:26.643Z,7.17
2019-03-03T17:08:56.592Z,6.43
2019-03-03T17:11:26.195Z,7.40
2019-03-03T17:13:55.888Z,6.90
2019-03-03T17:16:25.750Z,7.20
2019-03-03T17:18:55.707Z,7.00
2019-03-03T17:21:25.319Z,6.53
2019-03-03T17:23:55.048Z,7.20
2019-03-03T17:26:24.695Z,6.27
2019-03-03T17:28:54.356Z,6.73
2019-03-03T17:31:24.728Z,6.43
2019-03-03T17:33:55.540Z,6.13
2019-03-03T17:36:25.596Z,6.30
2019-03-03T17:38:55.279Z,6.47
2019-03-03T17:41:26.181Z,6.90
2019-03-03T17:43:56.250Z,6.23
2019-03-03T17:46:26.173Z,5.87
2019-03-03T17:48:55.891Z,6.03
2019-03-03T17:51:25.643Z,6.27
2019-03-03T17:53:55.239Z,6.37
2019-03-03T17:56:24.910Z,5.73
2019-03-03T17:58:54.563Z,6.20
2019-03-03T18:01:24.615Z,6.03
2019-03-03T18:03:54.235Z,5.83
2019-03-03T18:06:23.929Z,6.60
2019-03-03T18:08:53.580Z,5.97
2019-03-03T18:11:23.652Z,6.30
2019-03-03T18:13:53.268Z,6.53
2019-03-03T18:16:23.547Z,5.13
2019-03-03T18:18:54.334Z,6.10
2019-03-03T18:21:24.463Z,6.20
2019-03-03T18:23:54.096Z,5.90
2019-03-03T18:26:24.177Z,5.87
2019-03-03T18:28:53.908Z,6.10
2019-03-03T18:31:23.514Z,6.30
2019-03-03T18:33:53.364Z,5.80
2019-03-03T18:36:23.026Z,7.30
2019-03-03T18:38:52.662Z,5.97
2019-03-03T18:41:23.795Z,5.73
2019-03-03T18:43:53.462Z,5.50
2019-03-03T18:46:23.160Z,5.43
2019-03-03T18:48:52.807Z,5.70
2019-03-03T18:51:22.567Z,6.00
2019-03-03T18:53:52.524Z,5.10
2019-03-03T18:56:24.033Z,6.03
2019-03-03T18:58:53.708Z,5.83
2019-03-03T19:01:24.671Z,5.77
2019-03-03T19:03:54.350Z,5.50
2019-03-03T19:06:26.578Z,4.70
2019-03-03T19:08:57.629Z,5.80
2019-03-03T19:11:27.287Z,5.50
2019-03-03T19:13:56.982Z,5.53
2019-03-03T19:16:26.959Z,5.90
2019-03-03T19:18:56.642Z,4.40
2019-03-03T19:21:26.341Z,4.77
2019-03-03T19:23:56.974Z,5.57
2019-03-03T19:26:28.627Z,4.87
2019-03-03T19:28:58.226Z,4.87
2019-03-03T19:31:29.189Z,4.73
2019-03-03T19:34:02.263Z,4.13
2019-03-03T19:36:32.703Z,5.30
2019-03-03T19:39:05.879Z,4.20
2019-03-03T19:41:35.556Z,4.60
2019-03-03T19:44:05.279Z,4.97
2019-03-03T19:46:35.204Z,4.60
2019-03-03T19:49:04.961Z,4.07
2019-03-03T19:51:34.664Z,4.33
2019-03-03T19:54:04.716Z,4.67
2019-03-03T19:56:34.674Z,4.43
2019-03-03T19:59:04.796Z,4.57
2019-03-03T20:01:34.479Z,4.60
2019-03-03T20:04:05.514Z,4.40
2019-03-03T20:06:36.226Z,4.87
2019-03-03T20:09:09.200Z,4.23
2019-03-03T20:11:38.813Z,4.43
2019-03-03T20:14:10.017Z,4.23
2019-03-03T20:16:40.033Z,4.90
2019-03-03T20:19:10.134Z,4.60
2019-03-03T20:21:39.747Z,4.60
2019-03-03T20:24:11.696Z,4.60
2019-03-03T20:26:41.357Z,4.57
2019-03-03T20:29:11.333Z,4.80
2019-03-03T20:31:43.347Z,4.30
2019-03-03T20:34:13.442Z,4.27
2019-03-03T20:36:43.022Z,4.37
2019-03-03T20:39:13.600Z,4.17
2019-03-03T20:41:43.279Z,4.37
2019-03-03T20:44:12.868Z,4.27
2019-03-03T20:46:42.527Z,4.13
2019-03-03T20:49:13.955Z,5.10
2019-03-03T20:51:43.614Z,5.23
2019-03-03T20:54:13.263Z,4.60
2019-03-03T20:56:42.951Z,3.87
2019-03-03T20:59:12.639Z,4.27
2019-03-03T21:01:42.300Z,4.53
2019-03-03T21:04:11.940Z,3.93
2019-03-03T21:06:41.543Z,3.97
2019-03-03T21:09:18.655Z,4.57
2019-03-03T21:11:43.928Z,4.17
2019-03-03T21:14:14.336Z,4.10
2019-03-03T21:16:43.935Z,3.57
2019-03-03T21:19:13.650Z,4.07
2019-03-03T21:21:43.290Z,4.37
2019-03-03T21:24:12.965Z,3.83
2019-03-03T21:26:44.447Z,3.77
2019-03-03T21:29:14.042Z,4.10
2019-03-03T21:31:43.717Z,3.47
2019-03-03T21:34:13.303Z,4.07
2019-03-03T21:36:42.945Z,3.80
2019-03-03T21:39:12.631Z,3.60
2019-03-03T21:41:42.289Z,4.53
2019-03-03T21:44:11.871Z,3.57
2019-03-03T21:46:41.544Z,4.53
2019-03-03T21:49:11.155Z,4.10
2019-03-03T21:51:40.813Z,3.03
2019-03-03T21:54:10.416Z,3.53
2019-03-03T21:56:40.056Z,3.50
2019-03-03T21:59:09.790Z,3.77
2019-03-03T22:01:39.431Z,3.70
2019-03-03T22:04:09.067Z,3.93
2019-03-03T22:06:38.739Z,3.57
2019-03-03T22:09:09.053Z,3.90
2019-03-03T22:11:38.659Z,4.13
2019-03-03T22:14:08.363Z,4.27
2019-03-03T22:16:38.067Z,4.33
2019-03-03T22:19:07.650Z,4.27
2019-03-03T22:21:37.277Z,3.77
2019-03-03T22:24:06.951Z,4.17
2019-03-03T22:26:36.556Z,4.00
2019-03-03T22:29:06.163Z,4.13
2019-03-03T22:31:35.821Z,4.00
2019-03-03T22:34:05.474Z,3.77
2019-03-03T22:36:35.107Z,3.60
2019-03-03T22:39:06.529Z,4.00
2019-03-03T22:41:36.189Z,4.63
2019-03-03T22:44:05.910Z,3.57
2019-03-03T22:46:35.555Z,3.77
2019-03-03T22:49:08.794Z,4.37
2019-03-03T22:51:38.434Z,3.70
2019-03-03T22:54:08.097Z,4.17
2019-03-03T22:56:37.696Z,3.63
2019-03-03T22:59:07.343Z,3.20
2019-03-03T23:01:41.202Z,4.57
2019-03-03T23:05:02.790Z,3.67
2019-03-03T23:08:02.876Z,3.60
2019-03-03T23:11:12.690Z,3.13
2019-03-03T23:14:13.518Z,4.03
2019-03-03T23:17:22.644Z,3.67
2019-03-03T23:20:15.405Z,3.93
2019-03-03T23:23:50.510Z,3.70
2019-03-03T23:26:20.165Z,3.67
2019-03-03T23:28:49.798Z,4.07
2019-03-03T23:31:19.433Z,3.50
2019-03-03T23:33:49.311Z,3.47
2019-03-03T23:36:18.959Z,3.57
2019-03-03T23:38:48.528Z,4.00
2019-03-03T23:41:18.168Z,3.13
2019-03-03T23:43:47.763Z,3.50
2019-03-03T23:46:17.387Z,4.43
2019-03-03T23:48:46.989Z,3.87
2019-03-03T23:51:16.637Z,3.90
2019-03-03T23:53:46.277Z,3.80
2019-03-03T23:56:15.912Z,3.83
2019-03-03T23:58:45.594Z,3.37
